Time;durP1;ratioP1;P1;durP2;ratioP2;P2;SDS_P1;SDS_P2;PMS_P1;PMS_P2;Temp;Humidity;BMP_temperature;BMP_pressure;BME280_temperature;BME280_humidity;BME280_pressure;Samples;Min_cycle;Max_cycle;Signal;HPM_P1;HPM_P2
2021/06/02 00:02:09;;;;;;;24.98;17.33;;;;;;;;;;5097083;28;20028;-73
2021/06/02 00:04:36;;;;;;;25.63;16.85;;;;;;;;;;5092629;28;20451;-72
2021/06/02 00:07:09;;;;;;;23.45;18.13;;;;;;;;;;5092758;28;20043;-73
2021/06/02 00:09:35;;;;;;;28.50;18.10;;;;;;;;;;5093078;28;20047;-73
2021/06/02 00:12:05;;;;;;;26.55;16.63;;;;;;;;;;5092352;28;20494;-72
2021/06/02 00:14:31;;;;;;;25.55;16.80;;;;;;;;;;5103474;28;20077;-73
2021/06/02 00:16:57;;;;;;;22.80;17.10;;;;;;;;;;5104889;28;20095;-73
2021/06/02 00:19:24;;;;;;;25.08;18.20;;;;;;;;;;5092504;28;20427;-73
2021/06/02 00:21:50;;;;;;;29.65;18.15;;;;;;;;;;5098095;28;20016;-73
2021/06/02 00:24:17;;;;;;;26.58;18.55;;;;;;;;;;5112723;28;20449;-73
2021/06/02 00:26:43;;;;;;;27.55;18.10;;;;;;;;;;5092830;28;20019;-73
2021/06/02 00:29:10;;;;;;;27.58;17.63;;;;;;;;;;5104152;28;20027;-73
2021/06/02 00:31:40;;;;;;;23.92;17.38;;;;;;;;;;5092600;28;20394;-73
2021/06/02 00:34:06;;;;;;;22.67;16.65;;;;;;;;;;5095773;28;20391;-72
2021/06/02 00:36:33;;;;;;;22.98;17.35;;;;;;;;;;5097742;28;20024;-73
2021/06/02 00:39:00;;;;;;;23.00;16.67;;;;;;;;;;5116597;28;20038;-73
2021/06/02 00:41:26;;;;;;;26.70;17.67;;;;;;;;;;5116467;28;20490;-72
2021/06/02 00:43:52;;;;;;;24.10;16.35;;;;;;;;;;5107965;28;20038;-73
2021/06/02 00:46:20;;;;;;;25.00;17.40;;;;;;;;;;5116407;28;20035;-72
2021/06/02 00:48:46;;;;;;;23.88;15.88;;;;;;;;;;5115731;28;20080;-73
2021/06/02 00:51:12;;;;;;;27.65;17.25;;;;;;;;;;5116488;28;20031;-74
2021/06/02 00:53:39;;;;;;;26.52;16.45;;;;;;;;;;5099120;28;20024;-72
2021/06/02 00:56:06;;;;;;;23.98;16.02;;;;;;;;;;5096063;28;20081;-73
2021/06/02 00:58:35;;;;;;;25.13;17.17;;;;;;;;;;5097337;28;20024;-71
2021/06/02 01:01:01;;;;;;;27.55;17.75;;;;;;;;;;5103812;28;20024;-73
2021/06/02 01:03:28;;;;;;;24.65;17.02;;;;;;;;;;5095916;28;20029;-73
2021/06/02 01:05:57;;;;;;;25.45;16.35;;;;;;;;;;5095786;28;20343;-72
2021/06/02 01:08:23;;;;;;;22.05;15.88;;;;;;;;;;5095941;28;20386;-74
2021/06/02 01:10:51;;;;;;;23.23;16.75;;;;;;;;;;5095779;28;20122;-73
2021/06/02 01:13:18;;;;;;;26.55;15.77;;;;;;;;;;5095719;28;20093;-72
2021/06/02 01:15:46;;;;;;;24.25;16.33;;;;;;;;;;5115825;28;20474;-73
2021/06/02 01:18:14;;;;;;;24.75;15.52;;;;;;;;;;5100500;28;20483;-74
2021/06/02 01:20:40;;;;;;;26.65;16.00;;;;;;;;;;5077385;28;20551;-74
2021/06/02 01:23:10;;;;;;;21.83;15.63;;;;;;;;;;5104193;28;20027;-72
2021/06/02 01:25:36;;;;;;;22.90;15.73;;;;;;;;;;5115782;28;20077;-73
2021/06/02 01:28:04;;;;;;;20.65;15.57;;;;;;;;;;5107786;28;20032;-72
2021/06/02 01:30:30;;;;;;;22.92;15.52;;;;;;;;;;5106418;28;20031;-74
2021/06/02 01:32:59;;;;;;;21.58;15.40;;;;;;;;;;5108877;28;20028;-74
2021/06/02 01:35:31;;;;;;;22.73;15.30;;;;;;;;;;5095919;28;20495;-73
2021/06/02 01:38:16;;;;;;;25.05;14.73;;;;;;;;;;5095142;28;20028;-73
2021/06/02 01:40:45;;;;;;;23.98;15.48;;;;;;;;;;5095075;28;20056;-74
2021/06/02 01:43:30;;;;;;;23.98;15.00;;;;;;;;;;5102233;28;20118;-73
2021/06/02 01:46:14;;;;;;;24.50;15.73;;;;;;;;;;5114739;28;20051;-74
2021/06/02 01:48:53;;;;;;;25.20;15.00;;;;;;;;;;5104170;28;20028;-72
2021/06/02 01:51:32;;;;;;;24.08;16.85;;;;;;;;;;5102021;28;20027;-73
2021/06/02 01:54:18;;;;;;;22.38;16.38;;;;;;;;;;5114711;28;20027;-74
2021/06/02 01:56:44;;;;;;;23.42;14.95;;;;;;;;;;5115202;28;20509;-73
2021/06/02 01:59:16;;;;;;;23.02;15.60;;;;;;;;;;5100397;28;20479;-72
2021/06/02 02:01:57;;;;;;;23.33;14.95;;;;;;;;;;5114383;28;20073;-73
2021/06/02 02:04:23;;;;;;;23.10;16.65;;;;;;;;;;5095006;28;20028;-74
2021/06/02 02:07:02;;;;;;;23.63;14.82;;;;;;;;;;5094756;28;20012;-73
2021/06/02 02:09:28;;;;;;;24.25;15.02;;;;;;;;;;5095442;28;20024;-73
2021/06/02 02:12:24;;;;;;;22.25;15.80;;;;;;;;;;5094387;28;20024;-73
2021/06/02 02:14:56;;;;;;;20.42;15.27;;;;;;;;;;5033224;28;20045;-74
2021/06/02 02:17:46;;;;;;;24.23;15.88;;;;;;;;;;5094501;28;20047;-74
2021/06/02 02:20:22;;;;;;;20.35;14.23;;;;;;;;;;5094527;28;20471;-73
2021/06/02 02:23:00;;;;;;;20.65;13.77;;;;;;;;;;5094590;28;20023;-74
2021/06/02 02:25:45;;;;;;;24.23;15.82;;;;;;;;;;5102516;28;20047;-73
2021/06/02 02:28:30;;;;;;;22.15;14.60;;;;;;;;;;5113903;28;20401;-74
2021/06/02 02:30:59;;;;;;;25.07;15.10;;;;;;;;;;5100317;28;20035;-73
2021/06/02 02:33:31;;;;;;;24.77;14.85;;;;;;;;;;5102890;28;20808;-73
2021/06/02 02:35:57;;;;;;;23.80;15.25;;;;;;;;;;5114117;28;20035;-71
2021/06/02 02:38:38;;;;;;;23.52;14.98;;;;;;;;;;5096712;27;20081;-73
2021/06/02 02:41:30;;;;;;;23.05;15.15;;;;;;;;;;5093934;28;20108;-74
2021/06/02 02:44:02;;;;;;;22.70;15.20;;;;;;;;;;5093928;28;20020;-72
2021/06/02 02:46:45;;;;;;;22.02;14.80;;;;;;;;;;5094150;28;20108;-73
2021/06/02 02:49:30;;;;;;;24.20;14.98;;;;;;;;;;5093861;28;20032;-74
2021/06/02 02:51:56;;;;;;;23.48;15.35;;;;;;;;;;5093527;28;20020;-74
2021/06/02 02:54:29;;;;;;;25.23;14.95;;;;;;;;;;5093378;28;20074;-74
2021/06/02 02:57:04;;;;;;;21.52;14.05;;;;;;;;;;5093175;28;20081;-73
2021/06/02 02:59:40;;;;;;;25.05;14.68;;;;;;;;;;5100809;28;20103;-74
2021/06/02 03:02:25;;;;;;;26.23;15.02;;;;;;;;;;5093552;28;20019;-72
2021/06/02 03:04:54;;;;;;;23.13;15.85;;;;;;;;;;5093604;28;20382;-73
2021/06/02 03:07:22;;;;;;;21.80;15.13;;;;;;;;;;5093523;28;20020;-73
2021/06/02 03:09:54;;;;;;;24.88;16.50;;;;;;;;;;5093406;28;20532;-74
2021/06/02 03:12:39;;;;;;;47.85;30.83;;;;;;;;;;5093205;28;20020;-72
2021/06/02 03:15:14;;;;;;;69.75;34.75;;;;;;;;;;5109162;28;20393;-73
2021/06/02 03:17:43;;;;;;;38.25;24.50;;;;;;;;;;5112080;28;20038;-72
2021/06/02 03:20:27;;;;;;;45.42;27.55;;;;;;;;;;5113537;28;20131;-74
2021/06/02 03:23:02;;;;;;;43.67;25.75;;;;;;;;;;5113252;28;20034;-73
2021/06/02 03:25:43;;;;;;;43.15;24.92;;;;;;;;;;5109328;28;20032;-73
2021/06/02 03:28:15;;;;;;;42.72;24.55;;;;;;;;;;5093169;28;20028;-74
2021/06/02 03:30:43;;;;;;;27.20;17.38;;;;;;;;;;5093022;28;20046;-73
2021/06/02 03:33:35;;;;;;;24.88;16.92;;;;;;;;;;5099038;28;20061;-73
2021/06/02 03:36:11;;;;;;;27.35;18.35;;;;;;;;;;5081246;28;20059;-73
2021/06/02 03:38:59;;;;;;;25.42;17.58;;;;;;;;;;5113128;28;20050;-74
2021/06/02 03:41:35;;;;;;;30.15;19.10;;;;;;;;;;5102851;28;20016;-74
2021/06/02 03:44:24;;;;;;;24.52;16.17;;;;;;;;;;5092907;28;20032;-74
2021/06/02 03:46:53;;;;;;;25.25;15.63;;;;;;;;;;5092824;28;20063;-74
2021/06/02 03:49:22;;;;;;;21.50;14.75;;;;;;;;;;5113089;28;20424;-73
2021/06/02 03:51:53;;;;;;;19.08;13.52;;;;;;;;;;5112034;28;20034;-71
2021/06/02 03:54:19;;;;;;;21.35;14.93;;;;;;;;;;5113202;28;20486;-74
2021/06/02 03:56:48;;;;;;;22.25;14.10;;;;;;;;;;5101134;28;20479;-73
2021/06/02 03:59:14;;;;;;;17.45;12.20;;;;;;;;;;5092648;28;20031;-73
2021/06/02 04:01:51;;;;;;;20.42;13.20;;;;;;;;;;5111239;28;20084;-73
2021/06/02 04:04:23;;;;;;;19.67;13.45;;;;;;;;;;5111291;28;20486;-72
2021/06/02 04:06:58;;;;;;;20.40;13.60;;;;;;;;;;5104153;28;20028;-73
2021/06/02 04:09:25;;;;;;;20.05;14.23;;;;;;;;;;5112827;28;20059;-73
2021/06/02 04:11:57;;;;;;;20.38;14.15;;;;;;;;;;5112133;28;20019;-72
2021/06/02 04:14:31;;;;;;;21.92;13.63;;;;;;;;;;5112567;28;20047;-74
2021/06/02 04:16:57;;;;;;;23.58;14.45;;;;;;;;;;5083196;28;20032;-73
2021/06/02 04:19:23;;;;;;;22.35;14.85;;;;;;;;;;5092199;28;20054;-73
2021/06/02 04:21:50;;;;;;;23.23;14.43;;;;;;;;;;5102792;28;20386;-73
2021/06/02 04:24:17;;;;;;;21.33;15.00;;;;;;;;;;5106148;28;20099;-74
2021/06/02 04:26:44;;;;;;;23.73;16.42;;;;;;;;;;5092178;28;20036;-73
2021/06/02 04:29:12;;;;;;;22.45;15.02;;;;;;;;;;5092375;28;20052;-73
2021/06/02 04:31:39;;;;;;;21.17;14.43;;;;;;;;;;5074557;28;20028;-73
2021/06/02 04:34:05;;;;;;;19.63;14.80;;;;;;;;;;5092184;28;20431;-73
2021/06/02 04:36:32;;;;;;;22.90;15.85;;;;;;;;;;5092626;28;20060;-73
2021/06/02 04:38:59;;;;;;;25.38;17.23;;;;;;;;;;5092151;28;20028;-74
2021/06/02 04:41:26;;;;;;;25.55;17.45;;;;;;;;;;5094243;28;20099;-74
2021/06/02 04:43:54;;;;;;;29.83;19.13;;;;;;;;;;5092079;28;20103;-73
2021/06/02 04:46:21;;;;;;;34.45;26.10;;;;;;;;;;5093261;28;20539;-72
2021/06/02 04:48:48;;;;;;;25.50;16.70;;;;;;;;;;5095706;28;20037;-73
2021/06/02 04:51:20;;;;;;;26.67;18.17;;;;;;;;;;5084378;28;20028;-71
2021/06/02 04:53:46;;;;;;;21.30;16.65;;;;;;;;;;5095751;28;20024;-73
2021/06/02 04:56:31;;;;;;;21.58;15.95;;;;;;;;;;5091370;28;20032;-73
2021/06/02 04:58:57;;;;;;;25.97;16.90;;;;;;;;;;5102875;28;20036;-74
2021/06/02 05:01:37;;;;;;;27.20;16.83;;;;;;;;;;5108786;28;20031;-71
2021/06/02 05:04:22;;;;;;;30.58;18.92;;;;;;;;;;5094230;28;20025;-74
2021/06/02 05:06:48;;;;;;;21.13;16.27;;;;;;;;;;5091976;28;20020;-73
2021/06/02 05:09:20;;;;;;;23.05;15.35;;;;;;;;;;5091896;28;20032;-71
2021/06/02 05:11:52;;;;;;;20.65;13.88;;;;;;;;;;5092020;28;20497;-73
2021/06/02 05:14:18;;;;;;;18.42;13.15;;;;;;;;;;5091531;28;20048;-72
2021/06/02 05:16:47;;;;;;;19.52;13.50;;;;;;;;;;5110903;28;20076;-74
2021/06/02 05:22:21;;;;;;;18.65;12.45;;;;;;;;;;5095612;28;20431;-73
2021/06/02 05:25:06;;;;;;;26.48;14.35;;;;;;;;;;5095454;28;20020;-72
2021/06/02 05:27:51;;;;;;;22.65;14.15;;;;;;;;;;5095342;28;20028;-72
2021/06/02 05:30:35;;;;;;;25.33;17.60;;;;;;;;;;5095358;28;20028;-71
2021/06/02 05:33:07;;;;;;;18.95;11.98;;;;;;;;;;5105082;28;20110;-72
2021/06/02 05:35:52;;;;;;;22.90;19.17;;;;;;;;;;5100831;28;20071;-72
2021/06/02 05:38:18;;;;;;;24.93;18.27;;;;;;;;;;5115612;28;20364;-72
2021/06/02 05:40:50;;;;;;;20.40;13.27;;;;;;;;;;5109326;28;20266;-71
2021/06/02 05:43:16;;;;;;;14.90;11.00;;;;;;;;;;5093261;28;20028;-72
2021/06/02 05:46:01;;;;;;;14.55;11.35;;;;;;;;;;5093466;28;20043;-71
2021/06/02 05:48:45;;;;;;;20.67;11.20;;;;;;;;;;5094475;28;20497;-71
2021/06/02 05:51:44;;;;;;;13.90;10.57;;;;;;;;;;5110062;28;20027;-71
2021/06/02 05:54:10;;;;;;;12.65;8.90;;;;;;;;;;5053977;28;20130;-72
2021/06/02 05:56:54;;;;;;;13.13;9.57;;;;;;;;;;5104364;28;20038;-73
2021/06/02 05:59:26;;;;;;;13.75;8.75;;;;;;;;;;5107969;28;20392;-71
2021/06/02 06:01:53;;;;;;;12.85;9.68;;;;;;;;;;5097162;28;20144;-73
2021/06/02 06:04:20;;;;;;;14.75;9.20;;;;;;;;;;5112370;28;20501;-71
2021/06/02 06:06:54;;;;;;;10.13;8.02;;;;;;;;;;5098576;28;20028;-72
2021/06/02 06:09:38;;;;;;;11.00;7.32;;;;;;;;;;5094333;28;20020;-72
2021/06/02 06:12:04;;;;;;;14.83;8.93;;;;;;;;;;5103340;28;20032;-71
2021/06/02 06:14:48;;;;;;;14.80;8.60;;;;;;;;;;5103115;28;20950;-72
2021/06/02 06:17:14;;;;;;;13.30;7.57;;;;;;;;;;5093544;28;20024;-72
2021/06/02 06:19:59;;;;;;;10.88;8.02;;;;;;;;;;5111268;28;20099;-71
2021/06/02 06:22:40;;;;;;;10.25;7.88;;;;;;;;;;5114545;28;20019;-72
2021/06/02 06:25:11;;;;;;;8.75;6.40;;;;;;;;;;5094031;28;20020;-72
2021/06/02 06:27:47;;;;;;;12.95;7.60;;;;;;;;;;5094279;28;20103;-72
2021/06/02 06:30:15;;;;;;;13.73;8.80;;;;;;;;;;5093892;28;20058;-72
2021/06/02 06:32:42;;;;;;;10.63;6.97;;;;;;;;;;5094122;28;20030;-72
2021/06/02 06:35:09;;;;;;;10.13;6.78;;;;;;;;;;5114181;28;20028;-72
2021/06/02 06:37:40;;;;;;;12.70;8.13;;;;;;;;;;5095985;28;20024;-71
2021/06/02 06:40:08;;;;;;;11.70;6.32;;;;;;;;;;5098233;28;20511;-71
2021/06/02 06:42:38;;;;;;;44.35;19.83;;;;;;;;;;5093931;28;20505;-71
2021/06/02 06:45:06;;;;;;;15.25;8.88;;;;;;;;;;5093676;28;20032;-72
2021/06/02 06:47:34;;;;;;;11.23;7.80;;;;;;;;;;5093984;28;20039;-73
2021/06/02 06:50:00;;;;;;;17.25;14.85;;;;;;;;;;5093662;28;20031;-72
2021/06/02 06:52:28;;;;;;;10.48;9.38;;;;;;;;;;5105644;28;20119;-72
2021/06/02 06:54:55;;;;;;;11.00;7.65;;;;;;;;;;5105483;28;20048;-73
2021/06/02 06:57:22;;;;;;;13.20;8.10;;;;;;;;;;5097489;28;20031;-69
2021/06/02 06:59:49;;;;;;;9.85;6.78;;;;;;;;;;5106670;28;20028;-72
2021/06/02 07:02:16;;;;;;;8.90;5.80;;;;;;;;;;5113931;28;20069;-72
2021/06/02 07:04:42;;;;;;;15.15;7.78;;;;;;;;;;5101372;28;20020;-73
2021/06/02 07:07:09;;;;;;;10.20;6.03;;;;;;;;;;5093273;28;20078;-72
2021/06/02 07:09:36;;;;;;;14.30;7.72;;;;;;;;;;5093401;28;20020;-73
2021/06/02 07:12:02;;;;;;;6.45;5.72;;;;;;;;;;5093525;28;20024;-73
2021/06/02 07:14:29;;;;;;;13.80;7.50;;;;;;;;;;5099284;28;20114;-71
2021/06/02 07:16:57;;;;;;;16.88;8.38;;;;;;;;;;5096298;28;20050;-73
2021/06/02 07:19:23;;;;;;;8.52;5.70;;;;;;;;;;5103062;28;20070;-72
2021/06/02 07:21:50;;;;;;;9.52;6.20;;;;;;;;;;5101363;28;20019;-72
2021/06/02 07:24:18;;;;;;;12.68;5.60;;;;;;;;;;5093192;28;20031;-71
2021/06/02 07:26:44;;;;;;;14.40;7.38;;;;;;;;;;5093624;28;20024;-72
2021/06/02 07:29:10;;;;;;;9.95;6.15;;;;;;;;;;5083739;28;20063;-71
2021/06/02 07:31:36;;;;;;;11.93;6.47;;;;;;;;;;5106622;28;20024;-72
2021/06/02 07:34:02;;;;;;;9.10;6.63;;;;;;;;;;5108662;28;20131;-72
2021/06/02 07:36:29;;;;;;;9.02;6.13;;;;;;;;;;5092758;28;20035;-73
2021/06/02 07:38:55;;;;;;;7.00;5.80;;;;;;;;;;5092857;28;20027;-72
2021/06/02 07:41:21;;;;;;;9.77;5.70;;;;;;;;;;5074378;28;20024;-72
2021/06/02 07:43:47;;;;;;;7.50;4.93;;;;;;;;;;5098777;28;20026;-70
2021/06/02 07:46:13;;;;;;;7.45;5.35;;;;;;;;;;5106502;28;20024;-72
2021/06/02 07:48:39;;;;;;;7.97;5.80;;;;;;;;;;5108659;28;20397;-73
2021/06/02 07:51:05;;;;;;;9.40;5.25;;;;;;;;;;5096876;28;20029;-72
2021/06/02 07:53:31;;;;;;;8.82;5.50;;;;;;;;;;5103256;28;20027;-72
2021/06/02 07:55:57;;;;;;;8.15;5.20;;;;;;;;;;5094742;28;20050;-72
2021/06/02 07:58:24;;;;;;;8.80;4.80;;;;;;;;;;5099107;28;20453;-71
2021/06/02 08:00:50;;;;;;;9.35;4.82;;;;;;;;;;5096873;28;20035;-71
2021/06/02 08:03:16;;;;;;;7.95;5.10;;;;;;;;;;5095630;28;20020;-72
2021/06/02 08:05:42;;;;;;;5.97;4.88;;;;;;;;;;5084067;28;20048;-72
2021/06/02 08:08:09;;;;;;;8.52;4.85;;;;;;;;;;5096067;28;20028;-71
2021/06/02 08:10:35;;;;;;;7.07;5.05;;;;;;;;;;5102180;28;20035;-72
2021/06/02 08:13:02;;;;;;;11.75;5.85;;;;;;;;;;5098602;28;20139;-71
2021/06/02 08:15:28;;;;;;;7.03;5.13;;;;;;;;;;5092318;28;20693;-69
2021/06/02 08:17:54;;;;;;;7.00;4.80;;;;;;;;;;5095631;28;20076;-72
2021/06/02 08:20:20;;;;;;;9.13;6.03;;;;;;;;;;5094910;28;20423;-71
2021/06/02 08:22:46;;;;;;;9.80;5.70;;;;;;;;;;5093852;28;20024;-71
2021/06/02 08:25:14;;;;;;;8.90;5.70;;;;;;;;;;5091770;28;20124;-71
2021/06/02 08:27:40;;;;;;;9.23;6.85;;;;;;;;;;5092729;28;20074;-70
2021/06/02 08:30:07;;;;;;;7.63;5.97;;;;;;;;;;5094692;28;20028;-70
2021/06/02 08:32:33;;;;;;;7.50;6.35;;;;;;;;;;5095562;28;20027;-71
2021/06/02 08:35:00;;;;;;;6.40;5.53;;;;;;;;;;5094637;28;20054;-71
2021/06/02 08:37:26;;;;;;;7.63;5.82;;;;;;;;;;5094125;28;20035;-71
2021/06/02 08:39:52;;;;;;;10.75;6.20;;;;;;;;;;5095395;28;20031;-71
2021/06/02 08:42:19;;;;;;;8.88;6.13;;;;;;;;;;5095655;28;20502;-71
2021/06/02 08:44:45;;;;;;;8.10;6.80;;;;;;;;;;5096088;28;20024;-71
2021/06/02 08:47:11;;;;;;;8.10;5.13;;;;;;;;;;5099533;28;20024;-71
2021/06/02 08:49:38;;;;;;;9.20;6.28;;;;;;;;;;5093014;28;20028;-71
2021/06/02 08:52:05;;;;;;;11.48;6.00;;;;;;;;;;5077090;28;20065;-72
2021/06/02 08:54:31;;;;;;;8.65;5.85;;;;;;;;;;5094140;28;20024;-71
2021/06/02 08:56:57;;;;;;;10.43;6.25;;;;;;;;;;5105777;28;20024;-72
2021/06/02 08:59:24;;;;;;;13.05;6.68;;;;;;;;;;5097720;28;20043;-72
2021/06/02 09:01:50;;;;;;;13.35;6.38;;;;;;;;;;5096717;28;20026;-72
2021/06/02 09:04:17;;;;;;;7.10;5.97;;;;;;;;;;5090420;28;20039;-72
2021/06/02 09:06:44;;;;;;;9.43;6.13;;;;;;;;;;5096242;28;20032;-71
2021/06/02 09:09:11;;;;;;;14.98;7.20;;;;;;;;;;5100530;28;20027;-73
2021/06/02 09:11:55;;;;;;;10.55;6.40;;;;;;;;;;5106008;28;20027;-71
2021/06/02 09:14:26;;;;;;;6.90;5.53;;;;;;;;;;5101797;28;20123;-72
2021/06/02 09:16:57;;;;;;;10.82;6.10;;;;;;;;;;5097101;28;20019;-71
2021/06/02 09:19:33;;;;;;;8.25;6.20;;;;;;;;;;5108700;28;20067;-72
2021/06/02 09:22:00;;;;;;;8.60;6.90;;;;;;;;;;5096856;28;20080;-72
2021/06/02 09:24:45;;;;;;;10.23;7.07;;;;;;;;;;5096002;28;20387;-73
2021/06/02 09:27:11;;;;;;;10.85;6.60;;;;;;;;;;5106864;28;20026;-72
2021/06/02 09:29:54;;;;;;;8.80;6.10;;;;;;;;;;5095884;28;20028;-72
2021/06/02 09:32:21;;;;;;;8.98;5.82;;;;;;;;;;5103067;28;20038;-72
2021/06/02 09:34:48;;;;;;;11.90;7.07;;;;;;;;;;5096004;28;20085;-71
2021/06/02 09:37:15;;;;;;;8.00;6.70;;;;;;;;;;5095102;28;20032;-71
2021/06/02 09:39:42;;;;;;;14.27;8.00;;;;;;;;;;5095281;28;20020;-71
2021/06/02 09:42:28;;;;;;;11.68;7.05;;;;;;;;;;5107249;28;20019;-73
2021/06/02 09:45:01;;;;;;;8.18;6.95;;;;;;;;;;5105052;28;20020;-72
2021/06/02 09:47:40;;;;;;;10.55;7.05;;;;;;;;;;5105324;28;20124;-72
2021/06/02 09:50:07;;;;;;;10.20;6.63;;;;;;;;;;5101557;28;20027;-72
2021/06/02 09:52:40;;;;;;;17.17;9.18;;;;;;;;;;5108071;28;20028;-72
2021/06/02 09:55:25;;;;;;;17.30;8.23;;;;;;;;;;5110064;28;20019;-72
2021/06/02 09:58:06;;;;;;;10.83;7.70;;;;;;;;;;5104673;28;20076;-72
2021/06/02 10:00:53;;;;;;;18.92;7.53;;;;;;;;;;5094900;28;20335;-72
2021/06/02 10:03:22;;;;;;;13.85;7.10;;;;;;;;;;5094812;28;20035;-71
2021/06/02 10:05:49;;;;;;;13.40;8.90;;;;;;;;;;5099370;28;20103;-72
2021/06/02 10:08:26;;;;;;;14.13;7.95;;;;;;;;;;5110966;28;20102;-71
2021/06/02 10:10:53;;;;;;;12.30;8.25;;;;;;;;;;5105500;28;20055;-71
2021/06/02 10:13:20;;;;;;;8.82;6.85;;;;;;;;;;5095914;28;20466;-71
2021/06/02 10:15:50;;;;;;;12.88;7.45;;;;;;;;;;5099420;28;20031;-71
2021/06/02 10:18:29;;;;;;;16.85;8.55;;;;;;;;;;5110272;28;20115;-72
2021/06/02 10:21:02;;;;;;;18.17;7.93;;;;;;;;;;5105997;28;20031;-72
2021/06/02 10:23:30;;;;;;;10.77;7.88;;;;;;;;;;5101203;28;20032;-71
2021/06/02 10:25:57;;;;;;;13.82;7.30;;;;;;;;;;5099655;28;20113;-72
2021/06/02 10:28:24;;;;;;;17.02;7.70;;;;;;;;;;5099777;28;20028;-71
2021/06/02 10:30:51;;;;;;;15.98;7.50;;;;;;;;;;5108230;28;20028;-71
2021/06/02 10:33:17;;;;;;;12.57;7.57;;;;;;;;;;5102825;28;20020;-72
2021/06/02 10:35:43;;;;;;;13.88;7.88;;;;;;;;;;5110522;28;20110;-72
2021/06/02 10:38:09;;;;;;;12.25;7.93;;;;;;;;;;5104388;28;20028;-71
2021/06/02 10:40:36;;;;;;;15.00;7.63;;;;;;;;;;5093787;28;20095;-71
2021/06/02 10:43:02;;;;;;;12.52;7.43;;;;;;;;;;5095770;28;20024;-72
2021/06/02 10:45:30;;;;;;;11.93;7.07;;;;;;;;;;5094103;28;20024;-71
2021/06/02 10:48:00;;;;;;;12.30;8.13;;;;;;;;;;5094555;28;20043;-72
2021/06/02 10:50:40;;;;;;;14.15;7.32;;;;;;;;;;5097083;28;20035;-72
2021/06/02 10:53:21;;;;;;;10.77;6.88;;;;;;;;;;5095567;28;20477;-72
2021/06/02 10:55:47;;;;;;;11.20;8.32;;;;;;;;;;5098950;28;20059;-72
2021/06/02 10:58:18;;;;;;;11.18;7.07;;;;;;;;;;5099119;28;20038;-72
2021/06/02 11:00:44;;;;;;;17.35;8.25;;;;;;;;;;5095230;28;20506;-71
2021/06/02 11:03:25;;;;;;;11.80;7.32;;;;;;;;;;5097345;28;20028;-71
2021/06/02 11:06:11;;;;;;;12.23;7.38;;;;;;;;;;5099143;28;20016;-72
2021/06/02 11:08:49;;;;;;;15.65;8.23;;;;;;;;;;5075238;28;20051;-73
2021/06/02 11:11:29;;;;;;;12.52;7.63;;;;;;;;;;5107247;28;20065;-72
2021/06/02 11:14:14;;;;;;;16.83;8.05;;;;;;;;;;5108695;28;20040;-71
2021/06/02 11:16:44;;;;;;;9.35;7.05;;;;;;;;;;5094357;28;20020;-72
2021/06/02 11:19:19;;;;;;;14.95;8.35;;;;;;;;;;5097069;28;20032;-71
2021/06/02 11:21:54;;;;;;;14.15;7.43;;;;;;;;;;5106644;28;20032;-72
2021/06/02 11:24:33;;;;;;;11.63;7.47;;;;;;;;;;5099958;28;20019;-72
2021/06/02 11:27:14;;;;;;;17.52;9.10;;;;;;;;;;5107449;28;20077;-72
2021/06/02 11:29:49;;;;;;;14.85;7.95;;;;;;;;;;5094058;28;20157;-71
2021/06/02 11:32:16;;;;;;;15.32;7.78;;;;;;;;;;5099958;28;20028;-71
2021/06/02 11:34:42;;;;;;;13.35;8.40;;;;;;;;;;5096622;28;20031;-71
2021/06/02 11:37:11;;;;;;;15.43;8.73;;;;;;;;;;5099873;28;20033;-71
2021/06/02 11:39:38;;;;;;;16.17;8.52;;;;;;;;;;5095880;28;20024;-72
2021/06/02 11:42:05;;;;;;;16.67;9.85;;;;;;;;;;5102912;28;20024;-73
2021/06/02 11:44:31;;;;;;;19.17;9.48;;;;;;;;;;5102523;28;20035;-72
2021/06/02 11:46:58;;;;;;;21.58;10.40;;;;;;;;;;5103666;28;20024;-72
2021/06/02 11:49:30;;;;;;;14.63;9.20;;;;;;;;;;5096855;28;20095;-73
2021/06/02 11:51:58;;;;;;;17.90;10.38;;;;;;;;;;5094819;28;20019;-71
2021/06/02 11:54:24;;;;;;;15.07;10.43;;;;;;;;;;5099479;28;20059;-72
2021/06/02 11:56:50;;;;;;;13.05;9.02;;;;;;;;;;5083038;28;20030;-73
2021/06/02 11:59:16;;;;;;;18.83;9.48;;;;;;;;;;5095666;28;20078;-71
2021/06/02 12:01:43;;;;;;;15.90;9.15;;;;;;;;;;5101406;28;20020;-72
2021/06/02 12:04:09;;;;;;;15.07;9.18;;;;;;;;;;5093078;28;20020;-71
2021/06/02 12:06:36;;;;;;;14.77;8.90;;;;;;;;;;5098950;28;20027;-72
2021/06/02 12:09:11;;;;;;;17.35;10.18;;;;;;;;;;5101685;28;20024;-71
2021/06/02 12:11:37;;;;;;;;;;;;;;;;;;5093370;28;20108;-71
2021/06/02 12:14:04;;;;;;;19.75;10.45;;;;;;;;;;5092511;28;19951;-72
2021/06/02 12:16:30;;;;;;;17.70;9.82;;;;;;;;;;5092393;28;20036;-72
2021/06/02 12:19:00;;;;;;;21.17;10.65;;;;;;;;;;5092639;28;20035;-70
2021/06/02 12:21:27;;;;;;;16.67;10.70;;;;;;;;;;5101350;28;20023;-73
2021/06/02 12:24:01;;;;;;;21.17;12.15;;;;;;;;;;5112986;28;20035;-70
2021/06/02 12:26:27;;;;;;;25.05;11.93;;;;;;;;;;5105098;28;20016;-71
2021/06/02 12:28:54;;;;;;;24.35;12.18;;;;;;;;;;5105664;28;20047;-71
2021/06/02 12:31:37;;;;;;;17.73;10.60;;;;;;;;;;5109604;28;20028;-71
2021/06/02 12:34:05;;;;;;;17.58;11.00;;;;;;;;;;5097025;28;20028;-70
2021/06/02 12:36:32;;;;;;;19.65;10.32;;;;;;;;;;5097578;28;20028;-71
2021/06/02 12:39:06;;;;;;;22.73;11.27;;;;;;;;;;5110803;28;20020;-71
2021/06/02 12:41:32;;;;;;;33.83;11.77;;;;;;;;;;5096259;28;20012;-71
2021/06/02 12:44:03;;;;;;;19.90;11.25;;;;;;;;;;5103528;28;20049;-70
2021/06/02 12:46:29;;;;;;;20.33;11.02;;;;;;;;;;5109377;28;20454;-71
2021/06/02 12:48:55;;;;;;;27.38;12.40;;;;;;;;;;5104023;28;20030;-73
2021/06/02 12:51:23;;;;;;;24.52;11.82;;;;;;;;;;5099494;28;20103;-71
2021/06/02 12:53:49;;;;;;;19.90;10.25;;;;;;;;;;5100677;28;20060;-72
2021/06/02 12:56:16;;;;;;;21.27;11.52;;;;;;;;;;5096312;28;20020;-72
2021/06/02 12:58:43;;;;;;;21.20;11.27;;;;;;;;;;5109369;28;20050;-71
2021/06/02 13:01:12;;;;;;;19.25;10.40;;;;;;;;;;5096586;28;20467;-71
2021/06/02 13:03:56;;;;;;;17.50;11.38;;;;;;;;;;5101955;28;20036;-72
2021/06/02 13:06:23;;;;;;;25.55;12.50;;;;;;;;;;5086716;28;20022;-73
2021/06/02 13:08:50;;;;;;;18.48;11.57;;;;;;;;;;5112490;28;20035;-73
2021/06/02 13:11:28;;;;;;;25.67;10.80;;;;;;;;;;5099486;28;20635;-73
2021/06/02 13:13:54;;;;;;;20.25;10.88;;;;;;;;;;5099048;28;20101;-72
2021/06/02 13:16:21;;;;;;;22.52;11.75;;;;;;;;;;5095420;28;20028;-71
2021/06/02 13:18:59;;;;;;;24.27;11.23;;;;;;;;;;5100051;28;20024;-72
2021/06/02 13:21:28;;;;;;;17.10;10.13;;;;;;;;;;5107157;28;20081;-72
2021/06/02 13:24:08;;;;;;;18.63;10.30;;;;;;;;;;5103358;28;20562;-73
2021/06/02 13:26:35;;;;;;;20.50;11.20;;;;;;;;;;5084694;28;20363;-72
2021/06/02 13:29:01;;;;;;;25.88;10.70;;;;;;;;;;5102594;28;20016;-72
2021/06/02 13:31:42;;;;;;;18.92;10.35;;;;;;;;;;5108079;28;20039;-72
2021/06/02 13:34:09;;;;;;;21.38;11.43;;;;;;;;;;5095465;28;20131;-72
2021/06/02 13:36:40;;;;;;;22.42;10.90;;;;;;;;;;5106072;28;20027;-71
2021/06/02 13:39:10;;;;;;;20.58;10.07;;;;;;;;;;5112830;28;20032;-72
2021/06/02 13:41:36;;;;;;;17.88;10.10;;;;;;;;;;5098167;28;20027;-71
2021/06/02 13:44:03;;;;;;;18.95;10.45;;;;;;;;;;5095793;28;20020;-73
2021/06/02 13:46:29;;;;;;;25.33;11.18;;;;;;;;;;5108240;28;20068;-72
2021/06/02 13:48:56;;;;;;;19.88;10.55;;;;;;;;;;5108076;28;20442;-71
2021/06/02 13:51:29;;;;;;;18.65;9.48;;;;;;;;;;5108072;28;20145;-73
2021/06/02 13:54:10;;;;;;;19.48;10.35;;;;;;;;;;5104402;28;20487;-72
2021/06/02 13:56:49;;;;;;;20.13;11.05;;;;;;;;;;5104985;28;20030;-72
2021/06/02 13:59:16;;;;;;;16.92;9.38;;;;;;;;;;5076074;28;20442;-72
2021/06/02 14:01:43;;;;;;;16.98;10.95;;;;;;;;;;5104715;28;20020;-72
2021/06/02 14:04:10;;;;;;;21.25;11.27;;;;;;;;;;5108388;28;20101;-71
2021/06/02 14:06:36;;;;;;;14.55;9.35;;;;;;;;;;5106735;28;20032;-72
2021/06/02 14:09:09;;;;;;;17.60;10.18;;;;;;;;;;5097429;28;20020;-73
2021/06/02 14:11:35;;;;;;;17.27;10.60;;;;;;;;;;5102388;28;20024;-72
2021/06/02 14:14:01;;;;;;;17.02;11.07;;;;;;;;;;5100779;28;20047;-73
2021/06/02 14:16:28;;;;;;;16.30;10.50;;;;;;;;;;5111643;28;20024;-73
2021/06/02 14:18:55;;;;;;;25.10;11.32;;;;;;;;;;5096439;28;20038;-72
2021/06/02 14:21:23;;;;;;;17.08;9.73;;;;;;;;;;5098488;28;20497;-72
2021/06/02 14:23:50;;;;;;;15.55;10.05;;;;;;;;;;5102469;28;20050;-72
2021/06/02 14:26:16;;;;;;;15.65;9.63;;;;;;;;;;5094650;28;20020;-73
2021/06/02 14:28:43;;;;;;;14.27;9.35;;;;;;;;;;5094404;28;20052;-71
2021/06/02 14:31:10;;;;;;;20.50;11.55;;;;;;;;;;5094792;28;20532;-71
2021/06/02 14:33:36;;;;;;;14.90;9.07;;;;;;;;;;5094353;28;20040;-73
2021/06/02 14:36:02;;;;;;;18.50;9.18;;;;;;;;;;5100609;28;20059;-71
2021/06/02 14:38:28;;;;;;;14.65;9.10;;;;;;;;;;5102674;27;20031;-72
2021/06/02 14:40:57;;;;;;;14.57;9.35;;;;;;;;;;5094784;28;20058;-71
2021/06/02 14:43:23;;;;;;;17.38;8.60;;;;;;;;;;5095745;28;20024;-71
2021/06/02 14:45:49;;;;;;;14.75;9.25;;;;;;;;;;5094456;28;20024;-72
2021/06/02 14:48:15;;;;;;;17.50;8.95;;;;;;;;;;5099342;28;20077;-71
2021/06/02 14:50:42;;;;;;;17.70;9.32;;;;;;;;;;5080921;28;20027;-71